Ana Sayfa
METAR-TAF:

METAR-TAF

Havaalanları :

Newberry, Michigan, Amerika Birleşik Devletleri

Enlem: 46-18-40N, Boylam: 085-27-26W, yükseklik: 265 m

Güncel hava durumu gözlemi

Rapor saat 04:35 UTC de 19 dakika önce yapıldı.
Rüzgar güneybatıdan 5 kt
Sıcaklık -7°C
Nem 93%
Basınç 1025 hPa
Görüş mesafesi: 16.1 km
2400 ft yükseklikte çok bulutlu

METAR: KERY 070435Z AUTO 22005KT 10SM OVC024 M07/M08 A3028 RMK AO2 T10661080

Saat: 23:54 (04:54 UTC)


TAF: eksik

4.000'den fazla havaalanı için hava durumu gözlemleri ve tahminleri (METAR ve TAF raporları).

Kullanılabilir istasyonlar harita üzerinde sarı ve kırmızı noktalarla gösterilir.

İstasyonun adını görmek için fareyi noktanın üzerinde gezdirin.

Sonrasında hava gözlem ve tahminlerini görmek için tıklayın.

Haritayı değiştirmek için: yaklaştırmak için siyah artı işaretli yeşil düğmeye ve uzaklaştırmak için de eksi işaretli düğmeye hızla tıklayın; bitişik haritalar için yeşil okları kullanın.


METAR-TAF: